Overview Statistics Trail Chart Weather Telemetry Raw packets
 

This is the latest recevied weather packets stored in our database for station/object IZ2WYA-13. If no packets are shown the sender has not sent any weather packets the latest 10 day(s).

<< 14 15 16 17 18 19 20 >>
Time Temp. Humidity Pressure Rain* Wind** Luminosity Snow
1787856446 27.78° C 55% 1019.4 hPa - - - -
1787854645 27.78° C 58% 1019.3 hPa - - - -
1787852844 28.33° C 57% 1019.2 hPa - - - -
1787851042 28.33° C 56% 1018.9 hPa - - - -
1787849241 28.33° C 57% 1018.8 hPa - - - -
1787847440 28.89° C 56% 1018.7 hPa - - - -
1787845639 28.89° C 55% 1018.4 hPa - - - -
1787843837 28.89° C 54% 1018.4 hPa - - - -
1787842036 28.89° C 54% 1018.4 hPa - - - -
1787840235 28.89° C 54% 1018.4 hPa - - - -
1787838434 28.33° C 54% 1018.7 hPa - - - -
1787836632 28.33° C 54% 1018.6 hPa - - - -
1787834831 27.78° C 53% 1018.7 hPa - - - -
1787833030 27.22° C 52% 1019 hPa - - - -
1787831228 27.22° C 56% 1019 hPa - - - -
1787829427 26.67° C 56% 1019.3 hPa - - - -
1787827626 26.67° C 56% 1019.5 hPa - - - -
1787825825 26.11° C 56% 1019.7 hPa - - - -
1787824023 25.56° C 57% 1020 hPa - - - -
1787822222 25° C 59% 1020.2 hPa - - - -
1787820421 24.44° C 60% 1020.7 hPa - - - -
1787818620 23.89° C 62% 1021.2 hPa - - - -
1787816818 23.89° C 63% 1021.4 hPa - - - -
1787815017 23.33° C 65% 1021.1 hPa - - - -
1787813216 23.33° C 67% 1021 hPa - - - -

* Rain since midnight (hover to see other rain measurements)
** Current wind speed in m/s (hover to see current wind gust speed)